Bienvenidos al Sitio de AASANA BOLIVIA
Aeropuerto: Internaciónal El Alto
HORA UTC 11:00
06°C
Humedad: 94%

Fecha: 16/01/2018


En La Proximidad Niebla
ESTACIÓN:SLLP
LATITUD|LONGITUD:16-08S|68-10W
HORA UTC:11:00
DESCRIPCIÓN: SLLP 161100Z VRB02KT 4000E VCFG FEW004 SCT070 BKN200 06/05 Q1037 A3062 627.4 P92// VCFG NE/E/SE HR94 BECMG 9999=
Regional La Paz
EstaciónAerodromoSit. GeograficaDescripción
SLAPApolo14-44S-68-24W
SLCNCharaña17-35S-69-25W
SLUYUyuni20-27S-62-52W SLUY 161100Z VRB02KT 9999 FEW020 08/03 Q1034 A3054 658.4 AC HR73= 
SLSBSan Borja14-51S-66-44W SLSB 161100Z 00000KT 9999 FEW010 BKN080 22/22 Q1013 A2992 HR98 RWY WET OPR C210=
SLOROruro17-57S-67-04W SLOR 161100Z 05004KT 9999 FEW015 09/03 Q1034 A3053 655.2 AC HR65=
SLLPInternaciónal El Alto16-08S-68-10W SLLP 161100Z VRB02KT 4000E VCFG FEW004 SCT070 BKN200 06/05 Q1037 A3062 627.4 P92// VCFG NE/E/SE HR94 BECMG 9999=
SLRYReyes14-18S-67-21W SLRY 161100Z 00000KT 5000 VCFG BKN023 BKN070 23/22 Q1009 A2980 VCFG/S/SW/W HR98 RWY HUM OPR=
SLRQRurrenabaque14-25S-67-29W SLRQ 161100Z 00000KT 9999 FEW010 OVC023 23/23 Q1012 A2989 HR98=
Regional Cochabamba
EstaciónAerodromoSit. GeograficaDescripción
SLAGMonteagudo19-49S-63-58W SLAG 161100Z 00000KT 7000 FEW023 18/17 Q1019 A3011 HR95 FU AC/ CI=
SLVMVillamontes21-15S-63-24W SLVM 161100Z 00000KT 9999 NSC 21/20 Q1014 A2995 HR91 FU CI=
SLALAlcantari19-14S-65-09W SLAL 161100Z 33004KT 7000 VCFG BKN007 09/08 Q1030 A3042 HR96 VCFG SE/S/SW CI=
SLBJBermejo22-46S-64-18W SLBJ 152100Z 00000KT 9999 FEW017 BKN070 29/24 Q1012 A2988 HR75= 
SLCBCochabamba17-25S-66-10W SLCB 161100Z 33003KT 8000 SCT025 FEW030CB BKN070 14/11 Q1026 A3030 752.3 HR82 CB/W FU NOSIG=
SLPOPotosí19-32S-65-43W SLPO 161100Z 00000KT 9999 FEW010 05/04 Q1038 A3067 HR93 CI=
SLHIChimore16-58S-65-09W SLHI 161100Z 00000KT 3000N VCFG SCT003 BKN070 BKN200 21/21 Q1015 A2998 987.8 VCFG N/E/W/NW HR98= 
SLTJTarija21-33S-64-42W SLTJ 161100Z 00000KT 9999 FEW020 SCT070 16/11 Q1021 A3018 HR72=
SLYAYacuiba21-57S-63-39W SLYA 161100Z 00000KT 9999 SCT070 20/20 Q1015 A2997 HR97=
Regional Santa Cruz
EstaciónAerodromoSit. GeograficaDescripción
SLASAscención de Guarayos15-55S-63-09W SLAS 161100Z 00000KT 9999 SCT017 BKN023 OVC070 22/22 Q1014 A2994 HR100 RWY WET OPR=
SLSISan Ignacio de Velasco16-23S-60-57W SLSI 161100Z 00000KT 9999 BKN017 BKN070 22/21 Q1015 A2997 HR96 RWY NML=
SLETEl Trompillo17-48S-63-10W SLET 161100Z 31002KT 9999 BKN070 BKN200 22/20 Q1014 A2996 HR90 NOSIG=
SLCACamiri20-00S-63-31W SLCA 161100Z 00000KT 9999 FEW070 SCT200 19/18 Q1018 A3006 HR94 RWY NML= 
SLCPConcepción16-08S-62-01W SLCP 161100Z 00000KT 9999 SCT025 OVC070 21/21 Q1017 A3003 HR100 RWY HUM OPR=
SLTISan Matías16-20S-58-24W SLTI 161100Z 00000KT 9999 SCT008 BKN070 25/24 Q1018 A3006 HR92 RWY NML=
SLJESan José de Chiquitos17-49S-60-44W SLJE 161100Z 00000KT 9999 BKN020 BKN070 23/22 Q1016 A3003 HR94 RWY HUM OPR C206=
SLRBRoboré18-19S-59-45W SLRB 161100Z 00000KT 9999 BKN070 24/23 Q1016 A3000 HR95 RWY NML =
SLPSPuerto Suárez18-58S-57-49W SLPS 161100Z 00000KT 9999 BKN070 24/24 Q1012 A2989 HR98=
SLVRInternaciónal Viru Viru17-38S-63-08W SLVR 161100Z VRB02KT 9999 SCT030 BKN070 22/21 Q1014 A2995 HR92 NOSIG=
SLVGValle Grande18-28S-64-05W SLVG 152100Z 00000KT 9999 BKN027 FEW030CB BKN200 19/14 Q1022 A3018 HR70 CB ON STN RWY NML=
SLJVSan Javier16-16S-62-28W SLJV 161100Z 00000KT 3000 BR BKN015 21/21 Q1013 A2991 HR100 RWY WET OPR=
Regional Beni
EstaciónAerodromoSit. GeograficaDescripción
SLSMSan Ignacio de Moxos14-57S-65-38W SLSM 161100Z 00000KT 9999 BKN080 22/22 Q1012 A2990 HR98 RWY OPR C206= 
SLTRTrinidad14-49S-64-54W SLTR 161100Z 00000KT 9999 FEW005 BKN070 24/23 Q1013 A2993 995.0 HR96 NOSIG=
SLCOCobija11-02S-68-47W SLCO 161100Z 00000KT 9999 FEW003 BKN070 22/22 Q1013 A2992 985.7 HR98 RERA=
SLGMGuayaramerín10-53S-65-23W SLGM 161100Z 00000KT 7000 -RA BKN005 OVC070 22/22 Q1014 A2996 HR98=
SLRIRiberalta11-00S-66-04W SLRI 161100Z 00000KT 8000 -RA SCT004 BKN015 OVC070 22/22 Q1014 A2996 HR98=
SLBUBaures13-39S-63-42W SLBU 161100Z NIL=
SLSASanta Ana de Yacuma13-45S-65-26W SLSA 161100Z 00000KT 7000 VCSH SCT007 BKN015 FEW023CB OVC070 24/24 Q1012 A2990 HR98 CB/SH N/W/NW=
SLJOSan Joaquin13-03S-64-39W SLJO 161100Z 00000KT 5000 -RA BKN010 OVC070 22/22 Q1013 A2992 HR98 RWY OPR C210=
SLSRSanta Rosa14-04S-66-47W SLSR 161100Z 00000KT 8000 VCSH BKN015 OVC200 23/23 Q1010 A2984 HR96 SH N/NE/E RWY OPR C206=
SLRASan Ramón13-15S-64-36W SLRA 161100Z 00000KT 7000 -RA SCT010 FEW023CB OVC070 23/23 Q1012 A2989 HR98 CB SW/W RWY OPR C210=
SLMGSan Magdalena13-15S-64-36W SLMG 161100Z 00000KT 9999 FEW010 BKN080 24/24 Q1012 A2989 HR96 RWY NML=